createdAt,value
2023-01-04T00:00:02.834Z,7.35
2023-01-04T00:01:02.717Z,7.35
2023-01-04T00:02:02.769Z,7.37
2023-01-04T00:03:02.673Z,7.40
2023-01-04T00:04:02.975Z,7.45
2023-01-04T00:05:02.868Z,7.49
2023-01-04T00:06:02.803Z,7.47
2023-01-04T00:07:01.944Z,7.49
2023-01-04T00:08:02.634Z,7.52
2023-01-04T00:09:01.974Z,7.55
2023-01-04T00:10:01.829Z,7.55
2023-01-04T00:11:02.288Z,7.58
2023-01-04T00:12:02.339Z,7.58
2023-01-04T00:13:02.445Z,7.60
2023-01-04T00:14:02.553Z,7.60
2023-01-04T00:15:02.354Z,7.69
2023-01-04T00:16:07.805Z,7.72
2023-01-04T00:17:02.406Z,7.74
2023-01-04T00:18:02.134Z,7.78
2023-01-04T00:19:01.881Z,7.82
2023-01-04T00:20:02.223Z,7.85
2023-01-04T00:21:01.602Z,7.90
2023-01-04T00:22:02.331Z,7.82
2023-01-04T00:23:02.704Z,7.81
2023-01-04T00:24:02.432Z,7.85
2023-01-04T00:25:02.281Z,7.90
2023-01-04T00:26:02.173Z,7.92
2023-01-04T00:27:02.286Z,7.93
2023-01-04T00:28:02.061Z,7.96
2023-01-04T00:29:02.070Z,7.96
2023-01-04T00:30:02.159Z,7.96
2023-01-04T00:31:01.938Z,7.99
2023-01-04T00:32:02.353Z,7.99
2023-01-04T00:33:02.743Z,7.99
2023-01-04T00:34:02.374Z,8.00
2023-01-04T00:35:02.381Z,8.03
2023-01-04T00:36:02.786Z,8.10
2023-01-04T00:37:01.708Z,8.14
2023-01-04T00:38:02.194Z,8.17
2023-01-04T00:39:02.101Z,8.20
2023-01-04T00:40:01.721Z,8.21
2023-01-04T00:41:02.185Z,8.28
2023-01-04T00:42:02.357Z,8.30
2023-01-04T00:43:01.884Z,8.35
2023-01-04T00:44:01.852Z,8.36
2023-01-04T00:45:02.324Z,8.39
2023-01-04T00:46:01.948Z,8.44
2023-01-04T00:47:01.754Z,8.50
2023-01-04T00:48:02.364Z,8.53
2023-01-04T00:49:01.709Z,8.55
2023-01-04T00:50:02.229Z,8.57
2023-01-04T00:51:01.704Z,8.65
2023-01-04T00:52:02.786Z,8.68
2023-01-04T00:53:02.561Z,8.72
2023-01-04T00:54:02.338Z,8.75
2023-01-04T00:55:02.456Z,8.78
2023-01-04T00:56:02.298Z,8.71
2023-01-04T00:57:01.825Z,8.65
2023-01-04T00:58:02.260Z,8.68
2023-01-04T00:59:02.044Z,8.73
2023-01-04T01:00:02.349Z,8.75
2023-01-04T01:01:02.184Z,8.76
2023-01-04T01:02:03.606Z,8.79
2023-01-04T01:03:03.678Z,8.84
2023-01-04T01:04:03.473Z,8.83
2023-01-04T01:05:02.917Z,8.84
2023-01-04T01:06:03.323Z,8.86
2023-01-04T01:07:03.124Z,8.90
2023-01-04T01:08:03.305Z,8.94
2023-01-04T01:09:03.780Z,8.97
2023-01-04T01:10:03.081Z,8.94
2023-01-04T01:11:03.230Z,8.93
2023-01-04T01:12:02.804Z,8.94
2023-01-04T01:13:03.151Z,8.96
2023-01-04T01:14:02.841Z,8.96
2023-01-04T01:15:02.725Z,9.02
2023-01-04T01:16:02.948Z,9.05
2023-01-04T01:17:02.406Z,9.09
2023-01-04T01:18:02.572Z,9.06
2023-01-04T01:19:02.346Z,9.10
2023-01-04T01:20:02.795Z,9.16
2023-01-04T01:21:02.520Z,9.21
2023-01-04T01:22:03.105Z,9.27
2023-01-04T01:23:02.959Z,9.28
2023-01-04T01:24:03.396Z,9.32
2023-01-04T01:25:03.071Z,9.35
2023-01-04T01:26:03.338Z,9.35
2023-01-04T01:27:03.116Z,9.34
2023-01-04T01:28:03.379Z,9.35
2023-01-04T01:29:03.188Z,9.39
2023-01-04T01:30:03.624Z,9.43
2023-01-04T01:31:08.381Z,9.46
2023-01-04T01:32:02.871Z,9.48
2023-01-04T01:33:02.749Z,9.49
2023-01-04T01:34:03.076Z,9.49
2023-01-04T01:35:03.009Z,9.46
2023-01-04T01:36:02.915Z,9.45
2023-01-04T01:37:02.391Z,9.43
2023-01-04T01:38:02.718Z,9.45
2023-01-04T01:39:02.356Z,9.46
2023-01-04T01:40:02.140Z,9.52
2023-01-04T01:41:02.353Z,9.48
2023-01-04T01:42:02.740Z,9.45
2023-01-04T01:43:02.615Z,9.45
2023-01-04T01:44:02.723Z,9.50
2023-01-04T01:45:02.308Z,9.56
2023-01-04T01:46:02.364Z,9.57
2023-01-04T01:47:02.814Z,9.60
2023-01-04T01:48:02.773Z,9.63
2023-01-04T01:49:02.856Z,9.67
2023-01-04T01:50:03.146Z,9.71
2023-01-04T01:51:02.773Z,9.78
2023-01-04T01:52:03.135Z,9.81
2023-01-04T01:53:03.548Z,9.81
2023-01-04T01:54:03.122Z,9.83
2023-01-04T01:55:03.311Z,9.81
2023-01-04T01:56:03.267Z,9.79
2023-01-04T01:57:02.709Z,9.81
2023-01-04T01:58:02.555Z,9.83
2023-01-04T01:59:02.669Z,9.85
2023-01-04T02:00:02.514Z,9.89
2023-01-04T02:01:02.640Z,9.89
2023-01-04T02:02:03.220Z,9.93
2023-01-04T02:03:03.576Z,9.99
2023-01-04T02:04:03.058Z,10.00
2023-01-04T02:05:02.901Z,10.01
2023-01-04T02:06:03.087Z,9.99
2023-01-04T02:07:03.025Z,9.99
2023-01-04T02:08:02.623Z,9.96
2023-01-04T02:09:02.702Z,9.94
2023-01-04T02:10:02.624Z,9.97
2023-01-04T02:11:03.029Z,10.03
2023-01-04T02:12:03.266Z,10.00
2023-01-04T02:13:03.213Z,9.99
2023-01-04T02:14:03.278Z,9.97
2023-01-04T02:15:03.236Z,9.99
2023-01-04T02:16:03.155Z,9.99
2023-01-04T02:17:03.437Z,9.96
2023-01-04T02:18:03.206Z,9.97
2023-01-04T02:19:03.287Z,9.99
2023-01-04T02:20:03.830Z,9.99
2023-01-04T02:21:03.351Z,9.99
2023-01-04T02:22:02.684Z,9.97
2023-01-04T02:23:02.543Z,9.96
2023-01-04T02:24:02.998Z,9.89
2023-01-04T02:25:02.657Z,9.86
2023-01-04T02:26:03.095Z,9.88
2023-01-04T02:27:03.356Z,9.91
2023-01-04T02:28:03.277Z,9.91
2023-01-04T02:29:02.745Z,9.91
2023-01-04T02:30:03.284Z,9.89
2023-01-04T02:31:03.351Z,9.93
2023-01-04T02:32:03.821Z,9.97
2023-01-04T02:33:03.433Z,9.96
2023-01-04T02:34:03.442Z,9.94
2023-01-04T02:35:03.303Z,9.96
2023-01-04T02:36:03.201Z,9.94
2023-01-04T02:37:03.317Z,9.93
2023-01-04T02:38:02.950Z,9.91
2023-01-04T02:39:03.162Z,9.89
2023-01-04T02:40:03.164Z,9.93
2023-01-04T02:41:03.009Z,9.96
2023-01-04T02:42:03.590Z,9.93
2023-01-04T02:43:03.065Z,9.91
2023-01-04T02:44:03.405Z,9.93
2023-01-04T02:45:03.150Z,9.94
2023-01-04T02:46:03.742Z,9.94
2023-01-04T02:47:02.994Z,9.96
2023-01-04T02:48:02.549Z,10.01
2023-01-04T02:49:02.539Z,10.04
2023-01-04T02:50:05.348Z,10.03
2023-01-04T02:51:02.513Z,9.97
2023-01-04T02:52:03.283Z,9.96
2023-01-04T02:53:03.630Z,9.93
2023-01-04T02:54:03.752Z,9.94
2023-01-04T02:55:03.701Z,9.94
2023-01-04T02:56:03.654Z,9.96
2023-01-04T02:57:05.965Z,10.00
2023-01-04T02:58:03.132Z,9.97
2023-01-04T02:59:02.617Z,9.99
2023-01-04T03:00:03.080Z,9.99
2023-01-04T03:01:02.673Z,10.03
2023-01-04T03:02:03.429Z,10.03
2023-01-04T03:03:03.350Z,10.04
2023-01-04T03:04:02.885Z,10.06
2023-01-04T03:05:02.800Z,10.07
2023-01-04T03:06:03.237Z,10.04
2023-01-04T03:07:01.993Z,10.04
2023-01-04T03:08:02.103Z,10.01
2023-01-04T03:09:01.976Z,10.00
2023-01-04T03:10:02.513Z,9.97
2023-01-04T03:11:02.040Z,9.97
2023-01-04T03:12:02.521Z,10.00
2023-01-04T03:13:02.752Z,10.01
2023-01-04T03:14:02.376Z,10.04
2023-01-04T03:15:02.894Z,10.07
2023-01-04T03:16:02.745Z,10.07
2023-01-04T03:17:02.636Z,10.09
2023-01-04T03:18:03.063Z,10.06
2023-01-04T03:19:02.632Z,10.06
2023-01-04T03:20:02.842Z,10.06
2023-01-04T03:21:03.214Z,10.09
2023-01-04T03:22:02.832Z,10.07
2023-01-04T03:23:02.838Z,10.12
2023-01-04T03:24:02.995Z,10.12
2023-01-04T03:25:02.817Z,10.10
2023-01-04T03:26:03.378Z,10.14
2023-01-04T03:27:01.914Z,10.14
2023-01-04T03:28:01.975Z,10.12
2023-01-04T03:29:02.174Z,10.10
2023-01-04T03:30:02.220Z,10.06
2023-01-04T03:31:02.154Z,10.06
2023-01-04T03:32:01.988Z,10.04
2023-01-04T03:33:02.501Z,10.06
2023-01-04T03:34:01.940Z,10.09
2023-01-04T03:35:02.077Z,10.09
2023-01-04T03:36:02.208Z,10.09
2023-01-04T03:37:02.506Z,10.12
2023-01-04T03:38:02.659Z,10.17
2023-01-04T03:39:02.205Z,10.24
2023-01-04T03:40:02.593Z,10.26
2023-01-04T03:41:02.075Z,10.30
2023-01-04T03:42:03.009Z,10.32
2023-01-04T03:43:02.830Z,10.36
2023-01-04T03:44:02.686Z,10.36
2023-01-04T03:45:09.814Z,10.36
2023-01-04T03:46:02.687Z,10.33
2023-01-04T03:47:02.307Z,10.30
2023-01-04T03:48:02.627Z,10.28
2023-01-04T03:49:02.392Z,10.25
2023-01-04T03:50:02.612Z,10.21
2023-01-04T03:51:02.199Z,10.24
2023-01-04T03:52:03.178Z,10.28
2023-01-04T03:53:02.660Z,10.30
2023-01-04T03:54:02.813Z,10.22
2023-01-04T03:55:03.115Z,10.19
2023-01-04T03:56:02.924Z,10.17
2023-01-04T03:57:02.768Z,10.18
2023-01-04T03:58:03.309Z,10.21
2023-01-04T03:59:02.955Z,10.19
2023-01-04T04:00:02.821Z,10.17
2023-01-04T04:01:02.836Z,10.19
2023-01-04T04:02:02.986Z,10.22
2023-01-04T04:03:02.611Z,10.25
2023-01-04T04:04:02.511Z,10.25
2023-01-04T04:05:02.369Z,10.22
2023-01-04T04:06:02.448Z,10.21
2023-01-04T04:07:02.890Z,10.22
2023-01-04T04:08:03.087Z,10.22
2023-01-04T04:09:02.789Z,10.19
2023-01-04T04:10:02.672Z,10.19
2023-01-04T04:11:03.149Z,10.24
2023-01-04T04:12:02.400Z,10.26
2023-01-04T04:13:02.260Z,10.30
2023-01-04T04:14:02.412Z,10.30
2023-01-04T04:15:02.748Z,10.33
2023-01-04T04:16:02.409Z,10.36
2023-01-04T04:17:02.998Z,10.36
2023-01-04T04:18:02.621Z,10.36
2023-01-04T04:19:08.189Z,10.36
2023-01-04T04:20:03.157Z,10.37
2023-01-04T04:21:02.559Z,10.37
2023-01-04T04:22:02.120Z,10.39
2023-01-04T04:23:01.903Z,10.39
2023-01-04T04:24:02.004Z,10.39
2023-01-04T04:25:02.402Z,10.39
2023-01-04T04:26:01.893Z,10.39
2023-01-04T04:27:02.745Z,10.40
2023-01-04T04:28:02.567Z,10.42
2023-01-04T04:29:02.205Z,10.40
2023-01-04T04:30:02.815Z,10.40
2023-01-04T04:31:02.394Z,10.42
2023-01-04T04:32:02.073Z,10.44
2023-01-04T04:33:01.774Z,10.47
2023-01-04T04:34:02.285Z,10.46
2023-01-04T04:35:01.730Z,10.46
2023-01-04T04:36:02.288Z,10.46
2023-01-04T04:37:02.570Z,10.46
2023-01-04T04:38:02.406Z,10.44
2023-01-04T04:39:02.848Z,10.47
2023-01-04T04:40:02.418Z,10.46
2023-01-04T04:41:02.819Z,10.46
2023-01-04T04:42:02.213Z,10.46
2023-01-04T04:43:02.079Z,10.46
2023-01-04T04:44:01.865Z,10.43
2023-01-04T04:45:02.321Z,10.43
2023-01-04T04:46:01.893Z,10.42
2023-01-04T04:47:02.339Z,10.40
2023-01-04T04:48:02.169Z,10.39
2023-01-04T04:49:02.578Z,10.37
2023-01-04T04:50:02.139Z,10.39
2023-01-04T04:51:02.602Z,10.36
2023-01-04T04:52:02.686Z,10.34
2023-01-04T04:53:02.386Z,10.34
2023-01-04T04:54:02.898Z,10.32
2023-01-04T04:55:02.739Z,10.33
2023-01-04T04:56:02.470Z,10.32
2023-01-04T04:57:01.909Z,10.32
2023-01-04T04:58:01.722Z,10.33
2023-01-04T04:59:02.184Z,10.33
2023-01-04T05:00:01.679Z,10.33
2023-01-04T05:01:01.692Z,10.34
2023-01-04T05:02:02.978Z,10.34
2023-01-04T05:03:03.149Z,10.34
2023-01-04T05:04:03.131Z,10.34
2023-01-04T05:05:02.970Z,10.37
2023-01-04T05:06:02.761Z,10.37
2023-01-04T05:07:07.562Z,10.37
2023-01-04T05:08:02.971Z,10.34
2023-01-04T05:09:03.449Z,10.36
2023-01-04T05:10:03.314Z,10.37
2023-01-04T05:11:03.164Z,10.36
2023-01-04T05:12:03.636Z,10.37
2023-01-04T05:13:03.427Z,10.40
2023-01-04T05:14:03.755Z,10.39
2023-01-04T05:15:03.524Z,10.39
2023-01-04T05:16:03.410Z,10.40
2023-01-04T05:17:03.010Z,10.42
2023-01-04T05:18:02.601Z,10.40
2023-01-04T05:19:03.128Z,10.43
2023-01-04T05:20:02.493Z,10.43
2023-01-04T05:21:02.948Z,10.43
2023-01-04T05:22:03.251Z,10.44
2023-01-04T05:23:02.953Z,10.51
2023-01-04T05:24:03.342Z,10.51
2023-01-04T05:25:03.438Z,10.55
2023-01-04T05:26:03.094Z,10.60
2023-01-04T05:27:03.681Z,10.63
2023-01-04T05:28:03.455Z,10.65
2023-01-04T05:29:03.809Z,10.66
2023-01-04T05:30:03.365Z,10.68
2023-01-04T05:31:03.684Z,10.68
2023-01-04T05:32:02.911Z,10.68
2023-01-04T05:33:03.253Z,10.70
2023-01-04T05:34:03.067Z,10.71
2023-01-04T05:35:02.982Z,10.73
2023-01-04T05:36:02.850Z,10.76
2023-01-04T05:37:03.404Z,10.74
2023-01-04T05:38:03.012Z,10.76
2023-01-04T05:39:03.508Z,10.76
2023-01-04T05:40:03.113Z,10.76
2023-01-04T05:41:02.873Z,10.74
2023-01-04T05:42:03.072Z,10.74
2023-01-04T05:43:02.672Z,10.77
2023-01-04T05:44:02.677Z,10.78
2023-01-04T05:45:03.058Z,10.78
2023-01-04T05:46:02.660Z,10.80
2023-01-04T05:47:03.273Z,10.80
2023-01-04T05:48:02.792Z,10.78
2023-01-04T05:49:03.248Z,10.80
2023-01-04T05:50:02.935Z,10.80
2023-01-04T05:51:02.810Z,10.80
2023-01-04T05:52:03.383Z,10.80
2023-01-04T05:53:02.834Z,10.80
2023-01-04T05:54:03.428Z,10.80
2023-01-04T05:55:02.933Z,10.81
2023-01-04T05:56:02.773Z,10.83
2023-01-04T05:57:03.046Z,10.89
2023-01-04T05:58:02.614Z,10.89
2023-01-04T05:59:02.528Z,10.94
2023-01-04T06:00:03.016Z,10.91
2023-01-04T06:01:02.495Z,10.92
2023-01-04T06:02:03.733Z,10.92
2023-01-04T06:03:03.565Z,10.94
2023-01-04T06:04:03.580Z,10.94
2023-01-04T06:05:03.195Z,10.95
2023-01-04T06:06:03.122Z,10.99
2023-01-04T06:07:03.704Z,11.06
2023-01-04T06:08:03.384Z,11.09
2023-01-04T06:09:03.115Z,11.09
2023-01-04T06:10:03.496Z,11.06
2023-01-04T06:11:03.347Z,11.09
2023-01-04T06:12:03.491Z,11.11
2023-01-04T06:13:03.411Z,11.11
2023-01-04T06:14:03.201Z,11.10
2023-01-04T06:15:03.804Z,11.09
2023-01-04T06:16:03.250Z,11.10
2023-01-04T06:17:02.976Z,11.09
2023-01-04T06:18:03.865Z,11.06
2023-01-04T06:19:03.477Z,11.06
2023-01-04T06:20:02.988Z,11.06
2023-01-04T06:21:03.428Z,11.03
2023-01-04T06:22:03.124Z,11.02
2023-01-04T06:23:03.687Z,11.01
2023-01-04T06:24:03.222Z,11.02
2023-01-04T06:25:03.067Z,11.07
2023-01-04T06:26:03.555Z,11.09
2023-01-04T06:27:02.496Z,11.14
2023-01-04T06:28:02.997Z,11.11
2023-01-04T06:29:02.648Z,11.11
2023-01-04T06:30:02.525Z,11.11
2023-01-04T06:31:02.560Z,11.13
2023-01-04T06:32:03.033Z,11.11
2023-01-04T06:33:02.737Z,11.11
2023-01-04T06:34:02.591Z,11.11
2023-01-04T06:35:02.440Z,11.13
2023-01-04T06:36:03.008Z,11.13
2023-01-04T06:37:02.484Z,11.13
2023-01-04T06:38:03.094Z,11.13
2023-01-04T06:39:02.699Z,11.11
2023-01-04T06:40:02.561Z,11.09
2023-01-04T06:41:02.446Z,11.11
2023-01-04T06:42:06.524Z,11.10
2023-01-04T06:43:02.955Z,11.14
2023-01-04T06:44:03.570Z,11.13
2023-01-04T06:45:03.556Z,11.16
2023-01-04T06:46:03.266Z,11.19
2023-01-04T06:47:03.071Z,11.20
2023-01-04T06:48:08.932Z,11.19
2023-01-04T06:49:03.308Z,11.19
2023-01-04T06:50:03.045Z,11.20
2023-01-04T06:51:03.461Z,11.20
2023-01-04T06:52:03.250Z,11.24
2023-01-04T06:53:03.405Z,11.25
2023-01-04T06:54:03.309Z,11.27
2023-01-04T06:55:03.244Z,11.28
2023-01-04T06:56:03.722Z,11.28
2023-01-04T06:57:02.552Z,11.29
2023-01-04T06:58:03.091Z,11.29
2023-01-04T06:59:02.750Z,11.32
2023-01-04T07:00:02.930Z,11.31
2023-01-04T07:01:03.005Z,11.32
2023-01-04T07:02:02.829Z,11.34
2023-01-04T07:03:12.596Z,11.36
2023-01-04T07:04:03.283Z,11.35
2023-01-04T07:05:03.047Z,11.36
2023-01-04T07:06:02.781Z,11.35
2023-01-04T07:07:02.353Z,11.36
2023-01-04T07:08:07.924Z,11.38
2023-01-04T07:09:02.679Z,11.38
2023-01-04T07:10:09.483Z,11.41
2023-01-04T07:11:02.303Z,11.38
2023-01-04T07:12:01.971Z,11.38
2023-01-04T07:13:01.763Z,11.39
2023-01-04T07:14:02.201Z,11.39
2023-01-04T07:15:02.139Z,11.39
2023-01-04T07:16:02.329Z,11.39
2023-01-04T07:17:02.512Z,11.39
2023-01-04T07:18:02.366Z,11.38
2023-01-04T07:19:02.499Z,11.38
2023-01-04T07:20:02.355Z,11.39
2023-01-04T07:21:02.326Z,11.36
2023-01-04T07:22:02.924Z,11.38
2023-01-04T07:23:02.886Z,11.38
2023-01-04T07:24:02.761Z,11.38
2023-01-04T07:25:02.766Z,11.39
2023-01-04T07:26:02.728Z,11.39
2023-01-04T07:27:02.383Z,11.43
2023-01-04T07:28:02.383Z,11.43
2023-01-04T07:29:02.272Z,11.43
2023-01-04T07:30:02.674Z,11.43
2023-01-04T07:31:02.429Z,11.43
2023-01-04T07:32:02.488Z,11.46
2023-01-04T07:33:02.423Z,11.46
2023-01-04T07:34:02.354Z,11.49
2023-01-04T07:35:02.556Z,11.50
2023-01-04T07:36:02.401Z,11.47
2023-01-04T07:37:02.070Z,11.49
2023-01-04T07:38:02.139Z,11.47
2023-01-04T07:39:02.172Z,11.49
2023-01-04T07:40:02.096Z,11.49
2023-01-04T07:41:01.981Z,11.50
2023-01-04T07:42:02.630Z,11.53
2023-01-04T07:43:02.469Z,11.54
2023-01-04T07:44:02.528Z,11.52
2023-01-04T07:45:02.459Z,11.52
2023-01-04T07:46:02.518Z,11.52
2023-01-04T07:47:02.322Z,11.53
2023-01-04T07:48:02.362Z,11.56
2023-01-04T07:49:02.389Z,11.57
2023-01-04T07:50:02.525Z,11.56
2023-01-04T07:51:02.246Z,11.57
2023-01-04T07:52:02.735Z,11.56
2023-01-04T07:53:02.712Z,11.57
2023-01-04T07:54:02.663Z,11.57
2023-01-04T07:55:02.611Z,11.59
2023-01-04T07:56:02.726Z,11.59
2023-01-04T07:57:02.543Z,11.59
2023-01-04T07:58:02.537Z,11.59
2023-01-04T07:59:02.391Z,11.62
2023-01-04T08:00:02.247Z,11.64
2023-01-04T08:01:02.422Z,11.65
2023-01-04T08:02:03.117Z,11.65
2023-01-04T08:03:02.937Z,11.67
2023-01-04T08:04:02.921Z,11.68
2023-01-04T08:05:03.090Z,11.70
2023-01-04T08:06:02.802Z,11.72
2023-01-04T08:07:03.453Z,11.72
2023-01-04T08:08:03.403Z,11.72
2023-01-04T08:09:03.261Z,11.74
2023-01-04T08:10:03.259Z,11.72
2023-01-04T08:11:03.354Z,11.75
2023-01-04T08:12:02.939Z,11.74
2023-01-04T08:13:02.974Z,11.72
2023-01-04T08:14:03.001Z,11.75
2023-01-04T08:15:02.714Z,11.78
2023-01-04T08:16:02.668Z,11.82
2023-01-04T08:17:03.156Z,11.83
2023-01-04T08:18:03.164Z,11.82
2023-01-04T08:19:03.011Z,11.82
2023-01-04T08:20:02.869Z,11.82
2023-01-04T08:21:02.901Z,11.83
2023-01-04T08:22:03.480Z,11.82
2023-01-04T08:23:03.482Z,11.85
2023-01-04T08:24:03.347Z,11.83
2023-01-04T08:25:03.372Z,11.85
2023-01-04T08:26:03.250Z,11.85
2023-01-04T08:27:03.048Z,11.89
2023-01-04T08:28:02.800Z,11.89
2023-01-04T08:29:02.702Z,11.89
2023-01-04T08:30:02.612Z,11.89
2023-01-04T08:31:02.599Z,11.89
2023-01-04T08:32:03.352Z,11.90
2023-01-04T08:33:03.094Z,11.93
2023-01-04T08:34:03.124Z,11.93
2023-01-04T08:35:03.083Z,11.93
2023-01-04T08:36:02.907Z,11.93
2023-01-04T08:37:03.582Z,11.93
2023-01-04T08:38:46.824Z,11.93
2023-01-04T08:39:03.086Z,11.94
2023-01-04T08:40:03.932Z,11.94
2023-01-04T08:41:23.140Z,11.94
2023-01-04T08:42:14.527Z,11.94
2023-01-04T08:43:03.082Z,11.97
2023-01-04T08:44:02.738Z,11.96
2023-01-04T08:45:02.772Z,11.97
2023-01-04T08:46:02.853Z,11.97
2023-01-04T08:47:03.618Z,11.97
2023-01-04T08:48:03.188Z,11.99
2023-01-04T08:49:03.062Z,11.99
2023-01-04T08:50:10.008Z,12.01
2023-01-04T08:51:03.422Z,12.02
2023-01-04T08:52:03.769Z,12.04
2023-01-04T08:53:03.560Z,12.04
2023-01-04T08:54:03.544Z,12.02
2023-01-04T08:55:10.088Z,12.05
2023-01-04T08:56:03.425Z,12.05
2023-01-04T08:57:02.500Z,12.06
2023-01-04T08:58:03.128Z,12.06
2023-01-04T08:59:02.485Z,12.06
2023-01-04T09:00:02.528Z,12.08
2023-01-04T09:01:02.514Z,12.09
2023-01-04T09:02:05.836Z,12.12
2023-01-04T09:03:04.157Z,12.13
2023-01-04T09:04:03.356Z,12.11
2023-01-04T09:05:03.556Z,12.11
2023-01-04T09:06:03.605Z,12.12
2023-01-04T09:07:02.719Z,12.13
2023-01-04T09:08:02.660Z,12.13
2023-01-04T09:09:03.231Z,12.16
2023-01-04T09:10:02.862Z,12.15
2023-01-04T09:11:02.854Z,12.16
2023-01-04T09:12:02.843Z,12.19
2023-01-04T09:13:02.760Z,12.20
2023-01-04T09:14:07.757Z,12.21
2023-01-04T09:15:03.168Z,12.21
2023-01-04T09:16:03.235Z,12.23
2023-01-04T09:17:02.482Z,12.24
2023-01-04T09:18:31.644Z,12.24
2023-01-04T09:19:02.370Z,12.26
2023-01-04T09:20:02.991Z,12.27
2023-01-04T09:21:02.520Z,12.27
2023-01-04T09:22:02.580Z,12.26
2023-01-04T09:23:02.436Z,12.27
2023-01-04T09:24:02.454Z,12.29
2023-01-04T09:25:02.485Z,12.31
2023-01-04T09:26:09.016Z,12.31
2023-01-04T09:27:03.211Z,12.34
2023-01-04T09:28:03.434Z,12.33
2023-01-04T09:29:03.368Z,12.37
2023-01-04T09:30:03.375Z,12.34
2023-01-04T09:31:03.429Z,12.37
2023-01-04T09:32:02.834Z,12.37
2023-01-04T09:33:03.009Z,12.38
2023-01-04T09:34:14.188Z,12.41
2023-01-04T09:35:03.085Z,12.42
2023-01-04T09:36:02.915Z,12.42
2023-01-04T09:37:02.827Z,12.44
2023-01-04T09:38:02.777Z,12.46
2023-01-04T09:39:02.737Z,12.52
2023-01-04T09:40:02.777Z,12.56
2023-01-04T09:41:02.633Z,12.59
2023-01-04T09:42:03.355Z,12.62
2023-01-04T09:43:21.506Z,12.63
2023-01-04T09:44:03.456Z,12.63
2023-01-04T09:45:23.018Z,12.66
2023-01-04T09:46:03.472Z,12.69
2023-01-04T09:47:03.296Z,12.70
2023-01-04T09:48:03.095Z,12.71
2023-01-04T09:49:03.058Z,12.75
2023-01-04T09:50:03.095Z,12.77
2023-01-04T09:51:03.014Z,12.78
2023-01-04T09:52:02.769Z,12.79
2023-01-04T09:53:02.865Z,12.81
2023-01-04T09:54:02.903Z,12.84
2023-01-04T09:55:36.268Z,12.88
2023-01-04T09:56:03.027Z,12.89
2023-01-04T09:57:02.851Z,12.92
2023-01-04T09:58:02.849Z,12.93
2023-01-04T09:59:02.825Z,12.96
2023-01-04T10:00:02.694Z,12.97
2023-01-04T10:01:02.805Z,13.00
2023-01-04T10:02:02.116Z,13.00
2023-01-04T10:03:02.225Z,13.03
2023-01-04T10:04:01.877Z,13.03
2023-01-04T10:05:01.837Z,13.04
2023-01-04T10:06:01.868Z,13.04
2023-01-04T10:07:05.137Z,13.04
2023-01-04T10:08:02.448Z,13.03
2023-01-04T10:09:02.406Z,13.04
2023-01-04T10:10:02.643Z,13.04
2023-01-04T10:11:02.581Z,13.06
2023-01-04T10:12:02.590Z,13.09
2023-01-04T10:13:02.445Z,13.07
2023-01-04T10:14:02.847Z,13.06
2023-01-04T10:15:02.603Z,13.07
2023-01-04T10:16:02.651Z,13.07
2023-01-04T10:17:28.189Z,13.09
2023-01-04T10:19:52.205Z,13.06
2023-01-04T10:22:02.006Z,13.03
2023-01-04T10:23:02.040Z,13.04
2023-01-04T10:24:02.096Z,13.06
2023-01-04T10:25:02.057Z,13.04
2023-01-04T10:26:01.780Z,13.06
2023-01-04T10:27:02.422Z,13.06
2023-01-04T10:28:02.366Z,13.06
2023-01-04T10:29:02.265Z,13.09
2023-01-04T10:30:02.263Z,13.07
2023-01-04T10:31:38.801Z,13.09
2023-01-04T10:32:02.103Z,13.12
2023-01-04T10:33:01.755Z,13.14
2023-01-04T10:34:01.837Z,13.14
2023-01-04T10:35:01.759Z,13.15
2023-01-04T10:36:01.912Z,13.15
2023-01-04T10:37:02.510Z,13.18
2023-01-04T10:38:02.368Z,13.21
2023-01-04T10:39:02.142Z,13.22
2023-01-04T10:40:02.289Z,13.24
2023-01-04T10:41:02.067Z,13.27
2023-01-04T10:42:02.762Z,13.27
2023-01-04T10:43:02.826Z,13.30
2023-01-04T10:44:12.047Z,13.32
2023-01-04T10:45:08.414Z,13.33
2023-01-04T10:46:02.478Z,13.36
2023-01-04T10:47:02.165Z,13.38
2023-01-04T10:48:01.944Z,13.38
2023-01-04T10:49:01.962Z,13.43
2023-01-04T10:50:01.896Z,13.43
2023-01-04T10:51:09.270Z,13.44
2023-01-04T10:52:02.616Z,13.44
2023-01-04T10:53:02.610Z,13.47
2023-01-04T10:54:02.385Z,13.46
2023-01-04T10:55:02.235Z,13.49
2023-01-04T10:56:25.936Z,13.51
2023-01-04T10:57:06.742Z,13.51
2023-01-04T10:58:02.587Z,13.47
2023-01-04T10:59:02.446Z,13.51
2023-01-04T11:00:02.331Z,13.51
2023-01-04T11:01:02.420Z,13.49
2023-01-04T11:02:02.359Z,13.51
2023-01-04T11:03:08.222Z,13.52
2023-01-04T11:04:02.039Z,13.52
2023-01-04T11:05:01.948Z,13.49
2023-01-04T11:06:02.184Z,13.47
2023-01-04T11:07:02.712Z,13.47
2023-01-04T11:08:02.537Z,13.41
2023-01-04T11:09:02.742Z,13.41
2023-01-04T11:10:02.494Z,13.40
2023-01-04T11:11:02.475Z,13.38
2023-01-04T11:12:01.497Z,13.38
2023-01-04T11:13:01.883Z,13.40
2023-01-04T11:14:01.740Z,13.37
2023-01-04T11:15:01.647Z,13.38
2023-01-04T11:16:01.840Z,13.38
2023-01-04T11:17:01.856Z,13.38
2023-01-04T11:18:02.499Z,13.38
2023-01-04T11:19:02.271Z,13.38
2023-01-04T11:20:02.532Z,13.41
2023-01-04T11:21:02.206Z,13.43
2023-01-04T11:22:02.451Z,13.43
2023-01-04T11:23:02.567Z,13.44
2023-01-04T11:24:30.255Z,13.46
2023-01-04T11:26:03.002Z,13.47
2023-01-04T11:27:02.636Z,13.49
2023-01-04T11:28:01.885Z,13.51
2023-01-04T11:29:01.702Z,13.52
2023-01-04T11:30:01.971Z,13.51
2023-01-04T11:31:01.888Z,13.51
2023-01-04T11:32:01.980Z,13.49
2023-01-04T11:33:02.644Z,13.49
2023-01-04T11:34:02.618Z,13.46
2023-01-04T11:35:02.456Z,13.44
2023-01-04T11:36:02.314Z,13.41
2023-01-04T11:37:02.355Z,13.40
2023-01-04T11:38:01.864Z,13.37
2023-01-04T11:39:01.887Z,13.33
2023-01-04T11:40:01.862Z,13.29
2023-01-04T11:41:01.941Z,13.24
2023-01-04T11:42:03.588Z,13.20
2023-01-04T11:43:02.651Z,13.17
2023-01-04T11:44:02.719Z,13.14
2023-01-04T11:45:02.697Z,13.11
2023-01-04T11:46:02.823Z,13.06
2023-01-04T11:47:02.882Z,13.03
2023-01-04T11:48:02.626Z,13.03
2023-01-04T11:49:02.680Z,13.03
2023-01-04T11:50:02.585Z,13.04
2023-01-04T11:51:02.607Z,13.04
2023-01-04T11:52:02.660Z,13.03
2023-01-04T11:53:02.766Z,13.04
2023-01-04T11:54:02.799Z,13.06
2023-01-04T11:55:02.830Z,13.07
2023-01-04T11:56:02.858Z,13.07
2023-01-04T11:57:08.959Z,13.11
2023-01-04T11:58:01.919Z,13.09
2023-01-04T11:59:01.757Z,13.11
2023-01-04T12:00:01.849Z,13.11
2023-01-04T12:01:02.001Z,13.11
2023-01-04T12:02:02.186Z,13.09
2023-01-04T12:03:02.801Z,13.11
2023-01-04T12:04:01.897Z,13.11
2023-01-04T12:05:01.921Z,13.12
2023-01-04T12:06:01.952Z,13.12
2023-01-04T12:07:01.874Z,13.14
2023-01-04T12:08:02.692Z,13.14
2023-01-04T12:09:02.690Z,13.14
2023-01-04T12:10:02.673Z,13.14
2023-01-04T12:11:02.599Z,13.14
2023-01-04T12:12:02.534Z,13.14
2023-01-04T12:13:02.327Z,13.14
2023-01-04T12:14:02.279Z,13.14
2023-01-04T12:15:02.323Z,13.15
2023-01-04T12:16:02.244Z,13.17
2023-01-04T12:17:02.197Z,13.18
2023-01-04T12:18:02.893Z,13.18
2023-01-04T12:19:02.916Z,13.18
2023-01-04T12:20:02.766Z,13.20
2023-01-04T12:21:02.834Z,13.18
2023-01-04T12:22:02.829Z,13.20
2023-01-04T12:23:02.553Z,13.21
2023-01-04T12:24:02.417Z,13.22
2023-01-04T12:25:02.349Z,13.24
2023-01-04T12:26:02.355Z,13.24
2023-01-04T12:27:02.358Z,13.25
2023-01-04T12:28:03.022Z,13.25
2023-01-04T12:29:02.968Z,13.27
2023-01-04T12:30:02.812Z,13.27
2023-01-04T12:32:02.881Z,13.27
2023-01-04T12:33:02.171Z,13.29
2023-01-04T12:34:02.204Z,13.29
2023-01-04T12:35:02.133Z,13.29
2023-01-04T12:36:02.149Z,13.27
2023-01-04T12:37:05.618Z,13.29
2023-01-04T12:38:02.803Z,13.29
2023-01-04T12:39:02.729Z,13.29
2023-01-04T12:40:02.643Z,13.29
2023-01-04T12:41:02.555Z,13.27
2023-01-04T12:42:02.590Z,13.25
2023-01-04T12:43:02.360Z,13.25
2023-01-04T12:44:01.989Z,13.22
2023-01-04T12:45:01.873Z,13.20
2023-01-04T12:46:01.849Z,13.20
2023-01-04T12:47:01.904Z,13.18
2023-01-04T12:48:02.407Z,13.15
2023-01-04T12:49:02.289Z,13.15
2023-01-04T12:50:02.250Z,13.15
2023-01-04T12:51:14.769Z,13.14
2023-01-04T12:52:29.351Z,13.11
2023-01-04T12:53:20.039Z,13.09
2023-01-04T12:54:02.620Z,13.07
2023-01-04T12:55:02.737Z,13.04
2023-01-04T12:56:02.523Z,13.04
2023-01-04T12:57:02.554Z,13.03
2023-01-04T12:58:02.156Z,13.02
2023-01-04T12:59:26.999Z,13.03
2023-01-04T13:00:02.038Z,13.03
2023-01-04T13:01:02.153Z,13.03
2023-01-04T13:02:02.375Z,13.02
2023-01-04T13:03:03.131Z,13.03